Anchorville, Michigan
Current Conditions -  °F | °C
As of 2:55 PM on Friday 31 Oct 2014 (Local Time) from KMTC Reporting Station
Light Rain Light Rain  
Wind Chill:   Ceiling: 1900
Heat Index:   Visibility: 3mi
Dew Point:   Wind: 14mph
Humidity: 100%   Direction: 350°N
Pressure: 29.85"   Gusts: NA
Location:  42.69°N, 82.7°W
Report Text: KMTC 311855Z 35012KT 3SM -RA BR FEW008 SCT014 BKN019 OVC027 06/06 A2985 RMK SLP119 T00620062
Loading
Personal Weather Stations






























Interactive Weather Map
Tropical Storm Tracking
New forecast layout! Learn more

10-Day Weather Forecast

Advertisements
Track Severe Weather on mobile